^^

Meteo Aereoporti Centro-Italia

 

 
LIRZ - Perugia S.Egidio (208 m.)
Dati ricevuti: 19/04/2021 18:20
Molto nuvoloso
Molto nuvoloso
 Vento da NNE
Vento: NNE 7 km/h
TEMPERATURA: 13°C
P.to di Rugiada: 5°C
Umidità: 59%
Pressione: 1013 hPa
Nuvole: Molto nuvoloso
Visibilità: 10 km
Dettagli Nuvole: Poco nuvoloso 2012 m
Molto nuvoloso 3048 m
2021/04/19 16:20 LIRZ 191620Z AUTO 02004KT 360V060 9999 SCT066/// BKN100/// 13/05 Q1013
 
LIPY - Ancona Falconara (12 m.)
Dati ricevuti: 19/04/2021 18:20
Sereno
Sereno
 Vento da N
Vento: N 13 km/h
TEMPERATURA: 12°C
P.to di Rugiada: 6°C
Umidità: 67%
Pressione: 1014 hPa
Nuvole: Sereno
Visibilità: 10 km
2021/04/19 16:20 LIPY 191620Z AUTO 36007KT 9999 NCD 12/06 Q1014
 
LIPR - Rimini Miramare (12 m.)
Dati ricevuti: 19/04/2021 18:20
Sereno
Sereno
 Vento da NE
Vento: NE 9 km/h
TEMPERATURA: 13°C
P.to di Rugiada: 5°C
Umidità: 59%
Pressione: 1014 hPa
Condizioni generali: Sereno
Visibilità: oltre 10 km
2021/04/19 16:20 LIPR 191620Z 04005KT 010V070 CAVOK 13/05 Q1014
 
LIRF - Roma Fiumicino (2 m.)
Dati ricevuti: 19/04/2021 18:20
Qualche nuvola
Qualche nuvola
 Vento da E
Vento: E 13 km/h
TEMPERATURA: 12°C
P.to di Rugiada: 8°C
Umidità: 77%
Pressione: 1015 hPa
Nuvole: Qualche nuvola
Visibilità: 10 km
Dettagli Nuvole: Qualche nuvola 914 m
2021/04/19 16:20 LIRF 191620Z 09007KT 9999 FEW030 12/08 Q1015 NOSIG
 
LIRA - Roma Ciampino (129 m.)
Dati ricevuti: 19/04/2021 18:20
Pioggia debole, Molto Nuvoloso
Pioggia debole, Molto Nuvoloso
 Vento da SSW
Vento: SSW 7 km/h
TEMPERATURA: 9°C
Raffreddamento da Vento: 8°C
P.to di Rugiada: 7°C
Umidità: 87%
Pressione: 1015 hPa
Condizioni generali: Pioggia debole
Nuvole: Molto nuvoloso
Visibilità: 10 km
Dettagli Nuvole: Molto nuvoloso 1524 m
2021/04/19 16:20 LIRA 191620Z 21004KT 180V250 9999 -RA BKN050 09/07 Q1015
 
LIRU - Roma Urbe (17 m.)
Dati ricevuti: 19/04/2021 17:50
Pioggia debole, Molto Nuvoloso
Pioggia debole, Molto Nuvoloso
 Vento da direzione variabile
Vento: direzione variabile 2 km/h
TEMPERATURA: 10°C
P.to di Rugiada: 8°C
Umidità: 88%
Pressione: 1015 hPa
Condizioni generali: Pioggia debole
Nuvole: Molto nuvoloso
Visibilità: 8 km
Dettagli Nuvole: Qualche nuvola 305 m
Molto nuvoloso 914 m
2021/04/19 15:50 LIRU 191550Z VRB01KT 8000 -RA FEW010 BKN030 10/08 Q1015
 
LIVF - Frontone (570 m.)
Dati ricevuti: 19/04/2021 08:55
Dati non aggiornati
Poco nuvoloso
Poco nuvoloso
 Vento da WSW
Vento: WSW 6 km/h
TEMPERATURA: 4°C
P.to di Rugiada: 2°C
Umidità: 87%
Pressione: 1014 hPa
Nuvole: Poco nuvoloso
Visibilità: 10 km
Dettagli Nuvole: Poco nuvoloso 732 m
2021/04/19 06:55 LIVF 190655Z 24003KT 9999 SCT024 04/02 Q1014
 
LIRQ - Firenze Peretola (40 m.)
Dati ricevuti: 19/04/2021 18:20
Qualche nuvola
Qualche nuvola
 Vento da N
Vento: N 9 km/h
TEMPERATURA: 16°C
P.to di Rugiada: 2°C
Umidità: 39%
Pressione: 1014 hPa
Nuvole: Qualche nuvola
Visibilità: 10 km
Dettagli Nuvole: Qualche nuvola 1219 m
2021/04/19 16:20 LIRQ 191620Z 36005KT 320V040 9999 FEW040 16/02 Q1014
 
LIBP - Pescara (10 m.)
Dati ricevuti: 19/04/2021 18:20
Molto nuvoloso
Molto nuvoloso
 Vento da direzione variabile
Vento: direzione variabile 4 km/h
TEMPERATURA: 12°C
P.to di Rugiada: 6°C
Umidità: 67%
Pressione: 1015 hPa
Nuvole: Molto nuvoloso
Visibilità: 10 km
Dettagli Nuvole: Poco nuvoloso 1768 m
Molto nuvoloso 2499 m
2021/04/19 16:20 LIBP 191620Z AUTO VRB02KT 9999 SCT058/// BKN082/// 12/06 Q1015
 
LIRV - Viterbo (300 m.)
Dati ricevuti: 19/04/2021 17:55
Pioggia debole, Qualche nuvola
Pioggia debole, Qualche nuvola
 Vento da SSE
Vento: SSE 6 km/h
TEMPERATURA: 11°C
P.to di Rugiada: 8°C
Umidità: 82%
Pressione: 1013 hPa
Condizioni generali: Pioggia debole
Nuvole: Qualche nuvola
Visibilità: 10 km
Dettagli Nuvole: Poco nuvoloso 610 m
Qualche nuvola 762 m
2021/04/19 15:55 LIRV 191555Z 15003KT 9999 -RA SCT020 FEW025CB 11/08 Q1013
 
LIQN - Rieti (389 m.)
Dati ricevuti: 19/04/2021 17:50
Rovesci nelle vicinanze, Poco nuvoloso
Rovesci nelle vicinanze, Poco nuvoloso
 Vento da SSE
Vento: SSE 11 km/h
TEMPERATURA: 11°C
P.to di Rugiada: 4°C
Umidità: 62%
Pressione: 1013 hPa
Condizioni generali: Rovesci nelle vicinanze
Nuvole: Poco nuvoloso
Visibilità: 10 km
Dettagli Nuvole: Poco nuvoloso 1219 m
2021/04/19 15:50 LIQN 191550Z 16006KT 9999 VCSH SCT040 11/04 Q1013
 
LIRG - Guidonia -RM- (88 m.)
Dati ricevuti: 19/04/2021 17:55
Poco nuvoloso
Poco nuvoloso
 Vento da WSW
Vento: WSW 7 km/h
TEMPERATURA: 10°C
Raffreddamento da Vento: 9°C
P.to di Rugiada: 7°C
Umidità: 82%
Pressione: 1015 hPa
Nuvole: Poco nuvoloso
Visibilità: 10 km
Dettagli Nuvole: Qualche nuvola 914 m
Poco nuvoloso 1219 m
2021/04/19 15:55 LIRG 191555Z 25004KT 9999 FEW030 SCT040 10/07 Q1015
 
LIRK - Terminillo -RI-(1874 m.)
Dati ricevuti: 19/04/2021 16:55
Dati non aggiornati

 Vento da NW
Vento: NW 11 km/h
TEMPERATURA: 0°C
Raffreddamento da Vento: -4°C
P.to di Rugiada: -2°C
Umidità: 87%
Pressione: 1012 hPa
2021/04/19 14:55 LIRK 191455Z AUTO 32006KT //// M00/M02 Q1012
 
LIPK - Forlì (27 m.)
Dati ricevuti: 19/04/2021 17:50
Poco nuvoloso
Poco nuvoloso
 Vento da NNE
Vento: NNE 7 km/h
TEMPERATURA: 15°C
P.to di Rugiada: 1°C
Umidità: 39%
Pressione: 1014 hPa
Nuvole: Poco nuvoloso
Visibilità: 10 km
Dettagli Nuvole: Poco nuvoloso 762 m
2021/04/19 15:50 LIPK 191550Z 02004KT 9999 SCT025 15/01 Q1014
 
LIRS - Grosseto (5 m.)
Dati ricevuti: 19/04/2021 17:55
Qualche nuvola
Qualche nuvola
 Vento da W
Vento: W 13 km/h
TEMPERATURA: 15°C
P.to di Rugiada: 6°C
Umidità: 55%
Pressione: 1014 hPa
Nuvole: Qualche nuvola
Visibilità: 10 km
Dettagli Nuvole: Qualche nuvola 610 m
2021/04/19 15:55 LIRS 191555Z 28007KT 9999 FEW020CB 15/06 Q1014
 
LIRP - Pisa S.Giusto (2 m.)
Dati ricevuti: 19/04/2021 18:15
Qualche nuvola
Qualche nuvola
 Vento da WNW
Vento: WNW 22 km/h
TEMPERATURA: 14°C
P.to di Rugiada: 5°C
Umidità: 55%
Pressione: 1015 hPa
Nuvole: Qualche nuvola
Visibilità: 10 km
Dettagli Nuvole: Qualche nuvola 2134 m
2021/04/19 16:15 LIRP 191615Z 29012KT 9999 FEW070 14/05 Q1015 NOSIG